createdAt,value
2023-03-26T00:01:38.193Z,4.75
2023-03-26T00:04:05.910Z,4.91
2023-03-26T00:06:36.812Z,4.95
2023-03-26T00:09:04.207Z,5.09
2023-03-26T00:11:30.288Z,5.04
2023-03-26T00:13:57.027Z,5.07
2023-03-26T00:16:28.152Z,5.11
2023-03-26T00:18:54.703Z,5.15
2023-03-26T00:21:26.935Z,5.10
2023-03-26T00:23:59.066Z,5.14
2023-03-26T00:26:26.553Z,5.14
2023-03-26T00:28:53.809Z,5.20
2023-03-26T00:31:19.876Z,5.10
2023-03-26T00:33:47.006Z,5.19
2023-03-26T00:36:16.687Z,5.28
2023-03-26T00:38:44.250Z,5.29
2023-03-26T00:41:22.020Z,5.35
2023-03-26T00:43:50.033Z,5.33
2023-03-26T00:46:17.477Z,5.41
2023-03-26T00:48:45.761Z,5.52
2023-03-26T00:51:17.028Z,5.54
2023-03-26T00:53:44.808Z,5.53
2023-03-26T00:56:11.077Z,5.59
2023-03-26T00:58:37.713Z,5.52
2023-03-26T01:01:07.077Z,5.63
2023-03-26T01:03:35.898Z,5.58
2023-03-26T01:06:07.244Z,5.41
2023-03-26T01:08:53.956Z,5.38
2023-03-26T01:11:27.227Z,5.44
2023-03-26T01:14:07.954Z,5.30
2023-03-26T01:16:41.381Z,5.33
2023-03-26T01:19:15.717Z,5.31
2023-03-26T01:21:41.795Z,5.33
2023-03-26T01:24:09.307Z,5.38
2023-03-26T01:26:56.636Z,5.53
2023-03-26T01:29:31.392Z,5.42
2023-03-26T01:32:12.420Z,5.39
2023-03-26T01:34:50.144Z,5.41
2023-03-26T01:37:52.938Z,5.50
2023-03-26T01:40:37.737Z,5.46
2023-03-26T01:43:13.225Z,5.46
2023-03-26T01:45:42.915Z,5.48
2023-03-26T01:48:08.672Z,5.54
2023-03-26T01:50:34.577Z,5.59
2023-03-26T01:53:00.603Z,5.63
2023-03-26T01:55:38.047Z,5.67
2023-03-26T01:58:19.762Z,5.66
2023-03-26T02:01:01.330Z,5.67
2023-03-26T02:03:31.342Z,5.60
2023-03-26T02:06:05.830Z,5.73
2023-03-26T02:09:00.262Z,5.62
2023-03-26T02:11:34.689Z,5.59
2023-03-26T02:14:04.661Z,5.61
2023-03-26T02:16:30.565Z,5.71
2023-03-26T02:18:58.567Z,5.65
2023-03-26T02:21:27.271Z,5.65
2023-03-26T02:24:01.794Z,5.61
2023-03-26T02:26:29.662Z,5.67
2023-03-26T02:28:56.352Z,5.70
2023-03-26T02:31:25.588Z,5.68
2023-03-26T02:33:52.958Z,5.58
2023-03-26T02:36:21.281Z,5.65
2023-03-26T02:38:47.229Z,5.78
2023-03-26T02:41:13.018Z,5.74
2023-03-26T02:43:38.788Z,5.77
2023-03-26T02:46:04.685Z,5.72
2023-03-26T02:48:30.687Z,5.71
2023-03-26T02:50:56.550Z,5.74
2023-03-26T02:53:23.020Z,5.84
2023-03-26T02:55:49.552Z,5.77
2023-03-26T02:58:16.643Z,5.67
2023-03-26T03:00:46.317Z,5.72
2023-03-26T03:03:13.154Z,5.75
2023-03-26T03:05:42.315Z,5.63
2023-03-26T03:08:09.429Z,5.70
2023-03-26T03:10:37.144Z,5.48
2023-03-26T03:13:05.118Z,5.54
2023-03-26T03:15:30.880Z,5.46
2023-03-26T03:17:56.760Z,5.48
2023-03-26T03:20:22.553Z,5.60
2023-03-26T03:22:48.398Z,5.57
2023-03-26T03:25:16.759Z,5.56
2023-03-26T03:27:43.829Z,5.59
2023-03-26T03:30:12.487Z,5.53
2023-03-26T03:32:38.449Z,5.51
2023-03-26T03:35:05.078Z,5.52
2023-03-26T03:37:30.919Z,5.49
2023-03-26T03:39:56.784Z,5.46
2023-03-26T03:42:22.620Z,5.42
2023-03-26T03:44:48.495Z,5.57
2023-03-26T03:47:14.993Z,5.56
2023-03-26T03:49:41.027Z,5.44
2023-03-26T03:52:07.147Z,5.39
2023-03-26T03:54:33.013Z,5.49
2023-03-26T03:56:59.113Z,5.59
2023-03-26T03:59:24.902Z,5.52
2023-03-26T04:01:50.754Z,5.39
2023-03-26T04:04:17.033Z,5.39
2023-03-26T04:06:43.191Z,5.48
2023-03-26T04:09:09.676Z,5.59
2023-03-26T04:11:35.990Z,5.52
2023-03-26T04:14:02.325Z,5.49
2023-03-26T04:16:28.235Z,5.61
2023-03-26T04:18:54.122Z,5.56
2023-03-26T04:21:20.419Z,5.51
2023-03-26T04:23:46.360Z,5.50
2023-03-26T04:26:16.006Z,5.65
2023-03-26T04:28:49.441Z,5.52
2023-03-26T04:31:18.148Z,5.44
2023-03-26T04:33:46.141Z,5.43
2023-03-26T04:36:15.154Z,5.52
2023-03-26T04:38:48.466Z,5.51
2023-03-26T04:41:14.808Z,5.50
2023-03-26T04:43:50.192Z,5.46
2023-03-26T04:46:23.023Z,5.43
2023-03-26T04:48:53.543Z,5.26
2023-03-26T04:51:34.225Z,5.38
2023-03-26T04:54:01.910Z,5.33
2023-03-26T04:56:58.686Z,5.32
2023-03-26T04:59:29.750Z,5.32
2023-03-26T05:01:57.331Z,5.37
2023-03-26T05:04:23.812Z,5.33
2023-03-26T05:06:49.893Z,5.37
2023-03-26T05:09:15.788Z,5.28
2023-03-26T05:11:41.846Z,5.30
2023-03-26T05:14:08.092Z,5.17
2023-03-26T05:16:35.304Z,5.27
2023-03-26T05:19:01.138Z,5.20
2023-03-26T05:21:26.959Z,5.12
2023-03-26T05:23:52.736Z,5.18
2023-03-26T05:26:19.245Z,4.95
2023-03-26T05:28:45.201Z,4.95
2023-03-26T05:31:10.992Z,4.98
2023-03-26T05:33:36.916Z,4.99
2023-03-26T05:36:18.411Z,4.92
2023-03-26T05:38:47.000Z,5.02
2023-03-26T05:41:12.895Z,4.92
2023-03-26T05:43:38.753Z,5.06
2023-03-26T05:46:05.020Z,5.01
2023-03-26T05:48:30.854Z,5.07
2023-03-26T05:50:57.811Z,5.06
2023-03-26T05:53:25.418Z,5.09
2023-03-26T05:55:56.975Z,5.13
2023-03-26T05:58:25.549Z,5.19
2023-03-26T06:00:57.775Z,5.20
2023-03-26T06:03:23.925Z,5.19
2023-03-26T06:05:50.497Z,5.19
2023-03-26T06:08:16.420Z,5.16
2023-03-26T06:10:43.102Z,5.13
2023-03-26T06:13:08.894Z,5.11
2023-03-26T06:15:34.913Z,5.15
2023-03-26T06:18:00.912Z,5.17
2023-03-26T06:20:26.829Z,5.29
2023-03-26T06:22:52.706Z,5.36
2023-03-26T06:25:18.875Z,5.32
2023-03-26T06:27:44.764Z,5.25
2023-03-26T06:30:11.169Z,5.33
2023-03-26T06:32:37.120Z,5.33
2023-03-26T06:35:03.205Z,5.30
2023-03-26T06:37:29.045Z,5.36
2023-03-26T06:39:55.056Z,5.32
2023-03-26T06:42:20.885Z,5.43
2023-03-26T06:45:07.296Z,5.43
2023-03-26T06:47:33.255Z,5.49
2023-03-26T06:49:59.075Z,5.52
2023-03-26T06:52:25.411Z,5.47
2023-03-26T06:54:51.443Z,5.46
2023-03-26T06:57:17.260Z,5.50
2023-03-26T06:59:43.072Z,5.47
2023-03-26T07:02:10.787Z,5.38
2023-03-26T07:04:37.037Z,5.37
2023-03-26T07:07:03.248Z,5.36
2023-03-26T07:09:31.925Z,5.40
2023-03-26T07:11:58.181Z,5.51
2023-03-26T07:14:24.442Z,5.61
2023-03-26T07:16:53.554Z,5.42
2023-03-26T07:19:19.585Z,5.48
2023-03-26T07:21:46.297Z,5.57
2023-03-26T07:24:13.126Z,5.55
2023-03-26T07:26:51.300Z,5.62
2023-03-26T07:29:44.646Z,5.62
2023-03-26T07:32:13.160Z,5.69
2023-03-26T07:35:06.724Z,5.69
2023-03-26T07:37:54.817Z,5.71
2023-03-26T07:40:36.173Z,5.60
2023-03-26T07:43:13.869Z,5.63
2023-03-26T07:45:44.178Z,5.76
2023-03-26T07:48:20.348Z,5.62
2023-03-26T07:50:47.663Z,5.77
2023-03-26T07:53:14.105Z,5.87
2023-03-26T07:55:49.158Z,5.84
2023-03-26T07:58:50.809Z,5.97
2023-03-26T08:01:51.645Z,6.02
2023-03-26T08:04:39.863Z,5.99
2023-03-26T08:07:25.155Z,6.02
2023-03-26T08:10:09.798Z,6.11
2023-03-26T08:12:47.460Z,5.89
2023-03-26T08:15:24.987Z,5.84
2023-03-26T08:17:57.203Z,5.96
2023-03-26T08:20:27.636Z,5.98
2023-03-26T08:23:27.062Z,6.11
2023-03-26T08:25:58.717Z,6.15
2023-03-26T08:28:54.521Z,6.14
2023-03-26T08:31:32.272Z,6.29
2023-03-26T08:33:58.664Z,6.21
2023-03-26T08:36:25.127Z,6.13
2023-03-26T08:38:51.736Z,6.10
2023-03-26T08:41:35.723Z,6.17
2023-03-26T08:44:26.485Z,6.20
2023-03-26T08:47:07.953Z,6.10
2023-03-26T08:50:03.760Z,6.05
2023-03-26T08:52:50.917Z,6.08
2023-03-26T08:55:59.764Z,6.19
2023-03-26T08:58:51.861Z,6.10
2023-03-26T09:01:59.597Z,6.23
2023-03-26T09:05:18.444Z,6.15
2023-03-26T09:08:17.329Z,6.08
2023-03-26T09:11:01.695Z,6.22
2023-03-26T09:14:07.926Z,6.25
2023-03-26T09:17:12.622Z,6.25
2023-03-26T09:19:54.990Z,6.29
2023-03-26T09:22:48.413Z,6.35
2023-03-26T09:25:39.336Z,6.33
2023-03-26T09:28:30.808Z,6.24
2023-03-26T09:31:18.777Z,5.95
2023-03-26T09:34:01.257Z,5.96
2023-03-26T09:36:45.096Z,5.97
2023-03-26T09:39:29.774Z,5.64
2023-03-26T09:42:23.961Z,5.80
2023-03-26T09:45:19.042Z,5.74
2023-03-26T09:48:08.194Z,5.89
2023-03-26T09:51:01.533Z,5.64
2023-03-26T09:57:37.148Z,5.71
2023-03-26T10:00:22.880Z,5.60
2023-03-26T10:03:13.791Z,5.52
2023-03-26T10:05:54.591Z,5.45
2023-03-26T10:08:36.143Z,5.61
2023-03-26T10:11:21.811Z,5.54
2023-03-26T10:14:11.892Z,5.35
2023-03-26T10:16:50.147Z,5.16
2023-03-26T10:19:46.550Z,5.09
2023-03-26T10:22:12.253Z,4.94
2023-03-26T10:25:10.230Z,5.03
2023-03-26T10:28:05.661Z,5.19
2023-03-26T10:30:50.302Z,5.09
2023-03-26T10:33:45.303Z,4.98
2023-03-26T10:36:36.632Z,5.03
2023-03-26T10:39:39.011Z,5.10
2023-03-26T10:42:17.066Z,5.21
2023-03-26T10:44:50.451Z,5.33
2023-03-26T10:47:25.252Z,5.37
2023-03-26T10:50:00.626Z,5.41
2023-03-26T10:52:47.959Z,5.38
2023-03-26T10:55:18.655Z,5.35
2023-03-26T10:57:51.209Z,5.12
2023-03-26T11:00:26.548Z,5.34
2023-03-26T11:03:20.159Z,5.45
2023-03-26T11:05:56.359Z,5.28
2023-03-26T11:08:31.027Z,5.40
2023-03-26T11:11:16.194Z,5.41
2023-03-26T11:14:00.564Z,5.46
2023-03-26T11:16:42.833Z,5.52
2023-03-26T11:19:31.736Z,5.37
2023-03-26T11:22:33.898Z,5.47
2023-03-26T11:25:21.615Z,5.50
2023-03-26T11:27:57.088Z,5.41
2023-03-26T11:30:51.887Z,5.33
2023-03-26T11:33:26.699Z,5.34
2023-03-26T11:36:06.686Z,5.37
2023-03-26T11:38:42.947Z,5.44
2023-03-26T11:41:37.848Z,5.66
2023-03-26T11:44:21.127Z,5.51
2023-03-26T11:46:51.283Z,5.62
2023-03-26T11:49:19.079Z,5.69
2023-03-26T11:51:47.788Z,5.52
2023-03-26T11:54:14.636Z,5.43
2023-03-26T11:57:05.995Z,5.40
2023-03-26T11:59:49.109Z,5.39
2023-03-26T12:02:34.372Z,5.54
2023-03-26T12:05:25.783Z,5.53
2023-03-26T12:07:56.458Z,5.65
2023-03-26T12:10:42.136Z,5.72
2023-03-26T12:13:20.450Z,5.80
2023-03-26T12:15:46.607Z,5.85
2023-03-26T12:18:26.974Z,5.79
2023-03-26T12:21:09.137Z,5.73
2023-03-26T12:23:38.440Z,5.70
2023-03-26T12:26:14.177Z,5.85
2023-03-26T12:28:44.906Z,5.68
2023-03-26T12:31:17.400Z,5.72
2023-03-26T12:33:44.995Z,5.56
2023-03-26T12:36:30.827Z,5.56
2023-03-26T12:39:16.596Z,5.46
2023-03-26T12:44:42.649Z,5.48
2023-03-26T12:44:59.934Z,5.42
2023-03-26T12:47:58.583Z,5.41
2023-03-26T12:50:15.928Z,5.45
2023-03-26T12:53:08.284Z,5.52
2023-03-26T12:55:57.688Z,5.65
2023-03-26T12:58:44.924Z,5.65
2023-03-26T13:01:29.879Z,5.89
2023-03-26T13:04:12.833Z,5.94
2023-03-26T13:07:00.561Z,6.02
2023-03-26T13:09:55.246Z,6.15
2023-03-26T13:13:05.488Z,5.98
2023-03-26T13:15:38.186Z,5.99
2023-03-26T13:18:22.600Z,6.07
2023-03-26T13:20:53.239Z,6.17
2023-03-26T13:24:06.220Z,6.19
2023-03-26T13:26:41.439Z,6.16
2023-03-26T13:29:28.050Z,6.00
2023-03-26T13:32:14.898Z,6.08
2023-03-26T13:35:11.532Z,6.15
2023-03-26T13:37:51.854Z,6.06
2023-03-26T13:40:34.324Z,6.17
2023-03-26T13:43:19.565Z,6.17
2023-03-26T13:46:15.828Z,6.23
2023-03-26T13:48:50.809Z,6.21
2023-03-26T13:51:51.799Z,6.19
2023-03-26T13:54:27.986Z,6.23
2023-03-26T13:57:19.387Z,6.27
2023-03-26T14:00:11.942Z,6.20
2023-03-26T14:02:42.641Z,6.16
2023-03-26T14:05:25.098Z,5.95
2023-03-26T14:08:14.241Z,6.01
2023-03-26T14:10:45.407Z,5.96
2023-03-26T14:13:40.794Z,5.99
2023-03-26T14:16:15.698Z,5.94
2023-03-26T14:18:55.908Z,5.93
2023-03-26T14:21:51.947Z,6.00
2023-03-26T14:24:47.004Z,6.03
2023-03-26T14:27:23.541Z,6.10
2023-03-26T14:30:27.525Z,5.95
2023-03-26T14:33:27.191Z,5.92
2023-03-26T14:36:19.824Z,6.03
2023-03-26T14:39:10.254Z,5.95
2023-03-26T14:41:44.997Z,5.91
2023-03-26T14:44:48.462Z,6.01
2023-03-26T14:47:18.449Z,6.01
2023-03-26T14:50:19.688Z,5.98
2023-03-26T14:52:49.258Z,5.98
2023-03-26T14:55:42.007Z,6.03
2023-03-26T14:58:22.852Z,5.96
2023-03-26T15:01:03.986Z,5.95
2023-03-26T15:04:11.997Z,5.93
2023-03-26T15:06:55.825Z,6.03
2023-03-26T15:10:00.917Z,6.01
2023-03-26T15:12:35.468Z,5.91
2023-03-26T15:15:39.090Z,5.93
2023-03-26T15:18:26.050Z,5.96
2023-03-26T15:21:28.662Z,5.98
2023-03-26T15:24:16.478Z,5.93
2023-03-26T15:26:51.128Z,6.09
2023-03-26T15:29:29.594Z,5.93
2023-03-26T15:32:04.468Z,5.98
2023-03-26T15:34:42.235Z,6.15
2023-03-26T15:37:36.449Z,5.94
2023-03-26T15:40:28.634Z,6.06
2023-03-26T15:43:01.940Z,6.11
2023-03-26T15:45:30.741Z,5.96
2023-03-26T15:48:26.922Z,5.93
2023-03-26T15:51:03.789Z,5.85
2023-03-26T15:54:14.195Z,5.93
2023-03-26T15:56:48.324Z,6.07
2023-03-26T15:59:40.014Z,6.04
2023-03-26T16:02:06.954Z,5.89
2023-03-26T16:04:38.695Z,5.87
2023-03-26T16:07:29.573Z,5.80
2023-03-26T16:10:15.340Z,5.76
2023-03-26T16:12:53.582Z,5.66
2023-03-26T16:15:23.205Z,5.62
2023-03-26T16:18:08.646Z,5.69
2023-03-26T16:20:46.772Z,5.55
2023-03-26T16:23:47.701Z,5.49
2023-03-26T16:26:27.252Z,5.44
2023-03-26T16:29:02.499Z,5.46
2023-03-26T16:31:38.151Z,5.33
2023-03-26T16:34:08.055Z,5.35
2023-03-26T16:36:41.378Z,5.30
2023-03-26T16:39:17.434Z,5.23
2023-03-26T16:41:49.514Z,5.20
2023-03-26T16:44:30.151Z,5.16
2023-03-26T16:47:37.015Z,5.20
2023-03-26T16:50:10.508Z,5.18
2023-03-26T16:52:54.513Z,5.12
2023-03-26T16:55:34.356Z,5.23
2023-03-26T16:58:40.182Z,5.20
2023-03-26T17:01:15.346Z,5.18
2023-03-26T17:04:05.533Z,5.16
2023-03-26T17:06:56.070Z,5.25
2023-03-26T17:09:51.241Z,5.18
2023-03-26T17:12:37.207Z,5.15
2023-03-26T17:15:12.835Z,5.20
2023-03-26T17:17:51.510Z,5.11
2023-03-26T17:20:37.607Z,5.12
2023-03-26T17:23:09.276Z,5.10
2023-03-26T17:25:57.124Z,5.17
2023-03-26T17:28:42.253Z,5.03
2023-03-26T17:31:27.291Z,5.02
2023-03-26T17:33:54.304Z,5.03
2023-03-26T17:36:39.942Z,5.11
2023-03-26T17:39:21.771Z,5.03
2023-03-26T17:42:10.504Z,5.12
2023-03-26T17:44:52.812Z,5.11
2023-03-26T17:47:34.477Z,5.13
2023-03-26T17:50:17.214Z,5.03
2023-03-26T17:52:55.707Z,5.05
2023-03-26T17:55:29.809Z,4.89
2023-03-26T17:58:01.123Z,4.75
2023-03-26T18:00:46.506Z,4.74
2023-03-26T18:03:20.659Z,4.73
2023-03-26T18:05:48.433Z,4.70
2023-03-26T18:08:21.513Z,4.75
2023-03-26T18:11:15.159Z,4.73
2023-03-26T18:14:04.175Z,4.55
2023-03-26T18:16:36.687Z,4.50
2023-03-26T18:19:18.105Z,4.55
2023-03-26T18:21:49.473Z,4.65
2023-03-26T18:24:37.593Z,4.46
2023-03-26T18:27:12.312Z,4.57
2023-03-26T18:29:57.125Z,4.46
2023-03-26T18:32:32.618Z,4.41
2023-03-26T18:35:01.193Z,4.35
2023-03-26T18:37:35.528Z,4.32
2023-03-26T18:40:11.462Z,4.42
2023-03-26T18:42:44.891Z,4.38
2023-03-26T18:45:23.046Z,4.45
2023-03-26T18:47:53.176Z,4.46
2023-03-26T18:50:25.990Z,4.22
2023-03-26T18:52:52.185Z,4.16
2023-03-26T18:55:18.170Z,4.27
2023-03-26T18:57:44.027Z,4.08
2023-03-26T19:00:25.088Z,4.21
2023-03-26T19:03:01.112Z,4.30
2023-03-26T19:05:28.273Z,4.17
2023-03-26T19:07:55.547Z,4.19
2023-03-26T19:10:22.949Z,4.16
2023-03-26T19:12:57.291Z,4.16
2023-03-26T19:15:26.179Z,4.22
2023-03-26T19:17:58.844Z,4.37
2023-03-26T19:20:32.191Z,4.27
2023-03-26T19:22:58.192Z,4.08
2023-03-26T19:26:01.063Z,4.10
2023-03-26T19:28:31.016Z,4.20
2023-03-26T19:31:06.547Z,4.19
2023-03-26T19:33:36.330Z,4.20
2023-03-26T19:36:28.943Z,4.24
2023-03-26T19:39:10.147Z,4.04
2023-03-26T19:41:38.906Z,3.92
2023-03-26T19:44:26.469Z,4.04
2023-03-26T19:47:01.345Z,4.11
2023-03-26T19:49:40.461Z,4.05
2023-03-26T19:52:12.437Z,3.93
2023-03-26T19:55:01.608Z,4.02
2023-03-26T19:57:32.067Z,3.93
2023-03-26T19:59:58.477Z,3.76
2023-03-26T20:02:25.693Z,3.87
2023-03-26T20:04:51.760Z,3.79
2023-03-26T20:07:21.358Z,3.80
2023-03-26T20:10:01.802Z,3.81
2023-03-26T20:12:28.266Z,3.54
2023-03-26T20:14:54.070Z,3.65
2023-03-26T20:17:21.532Z,3.74
2023-03-26T20:19:49.155Z,3.59
2023-03-26T20:22:19.928Z,3.49
2023-03-26T20:24:46.243Z,3.43
2023-03-26T20:27:15.614Z,3.36
2023-03-26T20:29:41.683Z,3.33
2023-03-26T20:32:18.975Z,3.38
2023-03-26T20:34:47.687Z,3.32
2023-03-26T20:37:13.677Z,3.25
2023-03-26T20:39:39.505Z,3.40
2023-03-26T20:42:05.561Z,3.32
2023-03-26T20:44:31.390Z,3.40
2023-03-26T20:46:58.180Z,3.19
2023-03-26T20:49:24.269Z,3.21
2023-03-26T20:51:50.469Z,3.32
2023-03-26T20:54:19.406Z,3.27
2023-03-26T20:56:47.010Z,3.00
2023-03-26T20:59:18.395Z,2.87
2023-03-26T21:01:48.288Z,3.06
2023-03-26T21:04:15.730Z,3.05
2023-03-26T21:06:42.824Z,2.86
2023-03-26T21:09:17.187Z,2.75
2023-03-26T21:11:56.362Z,2.66
2023-03-26T21:14:40.478Z,2.58
2023-03-26T21:17:21.444Z,2.64
2023-03-26T21:19:48.499Z,2.47
2023-03-26T21:22:38.479Z,2.47
2023-03-26T21:25:22.062Z,2.47
2023-03-26T21:27:50.821Z,2.52
2023-03-26T21:30:16.977Z,2.55
2023-03-26T21:32:44.660Z,2.49
2023-03-26T21:35:12.825Z,2.26
2023-03-26T21:37:43.662Z,2.27
2023-03-26T21:40:13.988Z,2.23
2023-03-26T21:42:44.856Z,2.31
2023-03-26T21:45:11.525Z,2.15
2023-03-26T21:47:37.682Z,2.12
2023-03-26T21:50:06.552Z,2.26
2023-03-26T21:52:32.998Z,2.08
2023-03-26T21:55:00.132Z,2.15
2023-03-26T21:58:13.740Z,2.24
2023-03-26T22:01:06.801Z,2.14
2023-03-26T22:04:03.545Z,2.13
2023-03-26T22:06:37.577Z,2.10
2023-03-26T22:09:04.204Z,2.31
2023-03-26T22:11:30.230Z,2.24
2023-03-26T22:13:56.910Z,2.25
2023-03-26T22:16:26.037Z,2.12
2023-03-26T22:18:53.098Z,2.00
2023-03-26T22:21:19.674Z,2.00
2023-03-26T22:23:51.889Z,2.02
2023-03-26T22:26:22.731Z,2.01
2023-03-26T22:28:49.433Z,1.96
2023-03-26T22:31:16.150Z,2.02
2023-03-26T22:33:42.372Z,1.88
2023-03-26T22:36:23.381Z,1.84
2023-03-26T22:38:52.360Z,1.89
2023-03-26T22:41:18.137Z,1.84
2023-03-26T22:43:45.478Z,1.70
2023-03-26T22:46:11.914Z,1.68
2023-03-26T22:48:39.883Z,1.68
2023-03-26T22:51:07.747Z,1.62
2023-03-26T22:53:35.311Z,1.36
2023-03-26T22:56:01.358Z,1.51
2023-03-26T22:58:27.748Z,1.51
2023-03-26T23:01:11.793Z,1.54
2023-03-26T23:03:38.579Z,1.41
2023-03-26T23:06:06.733Z,1.43
2023-03-26T23:08:34.386Z,1.44
2023-03-26T23:11:00.791Z,1.40
2023-03-26T23:13:26.607Z,1.43
2023-03-26T23:15:54.518Z,1.24
2023-03-26T23:18:21.922Z,1.24
2023-03-26T23:20:52.069Z,1.31
2023-03-26T23:23:26.578Z,1.16
2023-03-26T23:25:53.713Z,1.08
2023-03-26T23:28:20.070Z,1.21
2023-03-26T23:30:51.378Z,1.41
2023-03-26T23:33:21.509Z,1.22
2023-03-26T23:35:49.942Z,1.15
2023-03-26T23:38:17.330Z,1.34
2023-03-26T23:40:44.784Z,1.32
2023-03-26T23:43:24.955Z,1.36
2023-03-26T23:45:51.478Z,1.23
2023-03-26T23:48:22.809Z,1.12
2023-03-26T23:50:50.356Z,1.24
2023-03-26T23:53:17.487Z,1.34
2023-03-26T23:55:51.386Z,1.27
2023-03-26T23:58:21.650Z,1.14
